Fort Smith Airport
CYSM : rendu visible

Aérodrome :











RETROUVEZ-NOUS SUR...

 
LOGIN :

S'inscrire | Disclaimer

   EN    FR    IT 

 









Légende :    VFR   VFR Marginal   IFR   IFR Intensif   IFR Très Intensif
Visi : 
Plafond : 
>= 8 km
>= 3000ft
5 à 8 km
1000 à 3000 ft
1500m à 5 km
500 à 1000 ft
800 à 1500m
200 à 500 ft
< 800m
< 200 ft
Symboles :   Orages  Brouillard  Fortes neiges  Fortes précipitations  Vent > 20 kt






- Altitude de l'aérodrome : 671 ft
- Code IATA : YSM


CYSM - Fort Smith

DERNIER METAR :
  • 121100Z 28007KT 10SM -SN OVC026 M10/M12 A2979 RMK SC8 SLP109

METARs EXPIRÉS :
  • 121000Z 27009KT 13SM -SN OVC026 M10/M12 A2981 RMK SC8 SLP116
  • 120900Z 28008KT 13SM -SN OVC019 M10/M12 A2981 RMK SC8 SLP116

TAF AMD TAF CYSM
Valide du 12 à 10h jusqu'au 12 à 18h UTC


121014Z 1210/1218 28008KT P6SM OVC025
TEMPO 1210/1218 5SM -SN FEW008 OVC015 RMK NXT FCST BY 121200Z



MET'MAP, la Météo Aéronautique d'un coup d'oeil ! - Copyright ORBIFLY Décembre 2007 - Disclaimer

ORBIFLY MET'MAP TEAM :

Programmation & Développement : Alexandra Zaïnal
Conception & Développement : Baudouin d'Aumeries
Co-Programmation & Développement : Marc-Olivier Méhu
Soutien technique & logistique : Manuel Goepfert

Contact : metmap@orbifly.com




SOURCES & CREDITS :

   NOAA       Earth
Advisory